Time;durP1;ratioP1;P1;durP2;ratioP2;P2;SDS_P1;SDS_P2;PMS_P1;PMS_P2;Temp;Humidity;BMP_temperature;BMP_pressure;BME280_temperature;BME280_humidity;BME280_pressure;Samples;Min_cycle;Max_cycle;Signal;HPM_P1;HPM_P2
2023/12/08 00:00:22;;;;;;;6.93;3.83;;;-1.00;73.10;;;;;;5071771;28;20036;-71
2023/12/08 00:02:50;;;;;;;14.95;7.22;;;-1.10;73.30;;;;;;5065057;28;20029;-71
2023/12/08 00:05:16;;;;;;;5.57;2.83;;;-1.10;73.20;;;;;;5051614;28;20049;-70
2023/12/08 00:07:42;;;;;;;5.10;2.97;;;-1.00;73.00;;;;;;5051074;28;20028;-71
2023/12/08 00:10:09;;;;;;;6.70;3.58;;;-1.00;73.00;;;;;;5051892;28;20395;-71
2023/12/08 00:12:35;;;;;;;;;;;-1.00;73.10;;;;;;5051687;28;20032;-74
2023/12/08 00:15:02;;;;;;;3.95;2.33;;;-1.10;73.00;;;;;;5050946;28;19924;-74
2023/12/08 00:17:28;;;;;;;7.40;2.03;;;-1.10;73.00;;;;;;5052590;28;20045;-75
2023/12/08 00:19:54;;;;;;;6.90;2.85;;;-1.20;72.90;;;;;;5052626;28;20483;-75
2023/12/08 00:22:20;;;;;;;;;;;-1.20;72.90;;;;;;5050971;28;20059;-75
2023/12/08 00:24:46;;;;;;;4.85;2.58;;;-1.20;72.80;;;;;;5052548;28;19921;-73
2023/12/08 00:27:12;;;;;;;4.38;2.45;;;-1.20;72.70;;;;;;5052166;28;20037;-71
2023/12/08 00:29:38;;;;;;;5.68;3.15;;;-1.20;72.80;;;;;;5051198;28;20037;-70
2023/12/08 00:32:05;;;;;;;3.78;2.58;;;-1.30;72.80;;;;;;5050174;28;20066;-75
2023/12/08 00:34:31;;;;;;;3.58;1.88;;;-1.30;72.30;;;;;;5050907;28;20483;-71
2023/12/08 00:36:57;;;;;;;3.28;2.13;;;-1.30;73.00;;;;;;5052183;28;20028;-74
2023/12/08 00:39:23;;;;;;;2.70;2.22;;;-1.30;72.90;;;;;;5050722;28;20045;-75
2023/12/08 00:41:49;;;;;;;3.15;1.55;;;-1.30;72.90;;;;;;5053973;28;20079;-70
2023/12/08 00:44:16;;;;;;;3.28;1.75;;;-1.30;72.90;;;;;;5056076;28;20045;-73
2023/12/08 00:46:42;;;;;;;;;;;-1.30;72.90;;;;;;5055461;28;20430;-74
2023/12/08 00:49:08;;;;;;;7.10;2.90;;;-1.40;72.80;;;;;;5056260;28;19927;-75
2023/12/08 00:51:34;;;;;;;15.35;4.82;;;-1.40;73.00;;;;;;5054178;28;20192;-70
2023/12/08 00:54:00;;;;;;;14.15;5.95;;;-1.40;73.10;;;;;;5055645;28;20036;-71
2023/12/08 00:56:27;;;;;;;11.15;5.80;;;-1.50;72.90;;;;;;5055883;28;20546;-72
2023/12/08 00:58:53;;;;;;;9.57;6.80;;;-1.50;72.90;;;;;;5054467;28;20039;-75
2023/12/08 01:01:19;;;;;;;4.93;3.75;;;-1.50;72.90;;;;;;5054033;28;20037;-71
2023/12/08 01:03:46;;;;;;;8.95;6.18;;;-1.50;72.90;;;;;;5054269;28;20457;-75
2023/12/08 01:06:12;;;;;;;4.18;2.55;;;-1.40;72.30;;;;;;5055733;28;20033;-75
2023/12/08 01:08:38;;;;;;;4.80;2.85;;;-1.40;72.60;;;;;;5055706;28;20029;-75
2023/12/08 01:13:49;;;;;;;5.18;3.55;;;-1.30;72.40;;;;;;5055472;28;20521;-75
2023/12/08 01:16:15;;;;;;;11.00;7.25;;;-1.20;72.10;;;;;;5054286;28;20036;-75
2023/12/08 01:18:41;;;;;;;9.13;3.78;;;-1.20;72.00;;;;;;5055595;28;20044;-71
2023/12/08 01:21:07;;;;;;;6.78;5.28;;;-1.20;72.00;;;;;;5054852;28;20044;-75
2023/12/08 01:23:34;;;;;;;4.68;2.85;;;-1.20;72.10;;;;;;5054193;28;20036;-71
2023/12/08 01:26:00;;;;;;;8.45;4.07;;;-1.20;72.30;;;;;;5054021;28;20037;-75
2023/12/08 01:28:26;;;;;;;5.82;3.42;;;-1.20;72.30;;;;;;5054153;28;20037;-71
2023/12/08 01:30:52;;;;;;;5.40;3.15;;;-1.30;72.50;;;;;;5053512;28;20033;-75
2023/12/08 01:33:18;;;;;;;8.13;5.60;;;-1.30;72.60;;;;;;5053688;28;20371;-75
2023/12/08 01:35:44;;;;;;;6.47;3.45;;;-1.30;72.70;;;;;;5053907;28;20082;-75
2023/12/08 01:38:10;;;;;;;4.25;2.78;;;-1.30;72.90;;;;;;5053859;28;20041;-75
2023/12/08 01:40:40;;;;;;;6.32;3.28;;;-1.30;72.80;;;;;;5054731;28;20048;-71
2023/12/08 01:43:11;;;;;;;10.10;7.15;;;-1.30;72.50;;;;;;5053657;28;20143;-74
2023/12/08 01:45:38;;;;;;;5.72;2.90;;;-1.30;72.50;;;;;;5053845;28;20100;-71
2023/12/08 01:48:05;;;;;;;5.15;2.22;;;-1.30;72.00;;;;;;5053754;28;20436;-75
2023/12/08 01:50:32;;;;;;;4.80;3.13;;;-1.30;72.90;;;;;;5053156;28;20423;-71
2023/12/08 01:52:59;;;;;;;11.45;4.43;;;-1.40;72.60;;;;;;5052232;28;20498;-75
2023/12/08 01:55:26;;;;;;;4.20;1.80;;;-1.40;72.80;;;;;;5053195;28;20037;-75
2023/12/08 01:57:53;;;;;;;3.67;2.78;;;-1.40;72.90;;;;;;5053582;28;20029;-75
2023/12/08 02:00:19;;;;;;;12.88;5.05;;;-1.50;72.80;;;;;;5052687;28;20068;-71
2023/12/08 02:02:45;;;;;;;6.70;3.42;;;-1.50;73.00;;;;;;5053479;28;20043;-71
2023/12/08 02:05:12;;;;;;;;;;;-1.50;73.50;;;;;;5053891;28;20045;-75
2023/12/08 02:07:38;;;;;;;6.65;4.40;;;-1.60;72.80;;;;;;5054820;28;20326;-74
2023/12/08 02:10:05;;;;;;;11.65;5.30;;;-1.60;73.20;;;;;;5035853;28;20041;-75
2023/12/08 02:12:31;;;;;;;7.32;5.75;;;-1.60;73.10;;;;;;5053170;28;20039;-74
2023/12/08 02:14:58;;;;;;;6.43;4.60;;;-1.70;73.50;;;;;;5053328;28;20090;-75
2023/12/08 02:17:33;;;;;;;7.38;4.72;;;-1.70;73.70;;;;;;5053139;28;20125;-71
2023/12/08 02:20:03;;;;;;;18.23;4.13;;;-1.60;73.70;;;;;;5054609;28;20072;-71
2023/12/08 02:22:29;;;;;;;7.85;3.60;;;-1.70;73.30;;;;;;5052654;28;20451;-75
2023/12/08 02:24:55;;;;;;;13.45;6.05;;;-1.60;74.20;;;;;;5053001;28;20075;-71
2023/12/08 02:27:21;;;;;;;11.32;4.90;;;-1.60;74.00;;;;;;5036407;28;20406;-71
2023/12/08 02:29:47;;;;;;;;;;;-1.60;73.90;;;;;;5037005;28;20037;-71
2023/12/08 02:32:38;;;;;;;8.05;5.13;;;-1.50;73.80;;;;;;5052335;28;19924;-71
2023/12/08 02:35:07;;;;;;;7.13;4.47;;;-1.50;73.70;;;;;;5052678;28;20090;-74
2023/12/08 02:37:37;;;;;;;7.07;2.80;;;-1.50;73.70;;;;;;5053019;28;20401;-75
2023/12/08 02:40:06;;;;;;;7.05;4.85;;;-1.60;73.70;;;;;;5052435;28;20032;-74
2023/12/08 02:42:33;;;;;;;12.13;7.05;;;-1.60;73.80;;;;;;5052696;28;20025;-75
2023/12/08 02:44:59;;;;;;;7.03;3.65;;;-1.70;74.00;;;;;;5037023;28;20036;-75
2023/12/08 02:47:25;;;;;;;6.70;4.78;;;-1.70;74.30;;;;;;5053922;28;20033;-73
2023/12/08 02:49:51;;;;;;;5.97;2.60;;;-1.70;74.40;;;;;;5052366;28;20052;-71
2023/12/08 02:52:18;;;;;;;6.03;3.97;;;-1.70;74.60;;;;;;5051773;28;20055;-71
2023/12/08 02:54:44;;;;;;;4.90;2.38;;;-1.70;74.60;;;;;;5052351;28;20486;-71
2023/12/08 02:57:10;;;;;;;3.75;2.90;;;-1.70;74.80;;;;;;5052543;28;20094;-72
2023/12/08 02:59:36;;;;;;;14.02;3.85;;;-1.70;75.00;;;;;;5052500;28;20563;-70
2023/12/08 03:02:02;;;;;;;6.78;4.00;;;-1.70;75.00;;;;;;5051550;28;20037;-75
2023/12/08 03:04:28;;;;;;;4.40;3.33;;;-1.60;74.80;;;;;;5052964;28;20440;-75
2023/12/08 03:06:54;;;;;;;11.38;3.25;;;-1.60;74.70;;;;;;5052439;28;20040;-75
2023/12/08 03:09:20;;;;;;;8.15;5.15;;;-1.50;75.00;;;;;;5052280;28;20048;-75
2023/12/08 03:11:46;;;;;;;8.18;6.15;;;-1.50;75.30;;;;;;5052845;28;20033;-70
2023/12/08 03:14:12;;;;;;;6.88;4.78;;;-1.50;75.60;;;;;;5051806;28;20033;-75
2023/12/08 03:16:38;;;;;;;12.23;3.83;;;-1.50;75.90;;;;;;5053405;28;20445;-74
2023/12/08 03:19:04;;;;;;;4.97;3.58;;;-1.50;76.00;;;;;;5051827;28;20091;-75
2023/12/08 03:21:30;;;;;;;6.22;3.13;;;-1.50;76.10;;;;;;5052864;28;20033;-71
2023/12/08 03:23:56;;;;;;;4.05;3.15;;;-1.50;76.10;;;;;;5053176;28;20056;-71
2023/12/08 03:26:22;;;;;;;7.30;4.18;;;-1.50;75.90;;;;;;5052006;28;20478;-75
2023/12/08 03:28:48;;;;;;;11.90;5.03;;;-1.40;75.60;;;;;;5053050;28;20501;-75
2023/12/08 03:31:33;;;;;;;;;;;-1.40;76.00;;;;;;5052948;28;20410;-71
2023/12/08 03:33:59;;;;;;;8.18;2.53;;;-1.40;75.60;;;;;;5053136;28;19921;-75
2023/12/08 03:36:25;;;;;;;;;;;-1.40;75.90;;;;;;5053478;28;20452;-75
2023/12/08 03:38:51;;;;;;;7.40;3.53;;;-1.40;76.80;;;;;;5053009;28;19930;-73
2023/12/08 03:41:17;;;;;;;6.03;4.00;;;-1.50;76.80;;;;;;5050993;28;20067;-70
2023/12/08 03:43:44;;;;;;;4.50;2.85;;;-1.40;77.30;;;;;;5052710;28;20182;-75
2023/12/08 03:46:10;;;;;;;9.10;2.72;;;-1.40;77.30;;;;;;5052790;28;20029;-75
2023/12/08 03:48:37;;;;;;;2.42;2.22;;;-1.40;77.80;;;;;;5034767;28;20033;-75
2023/12/08 03:51:21;;;;;;;;;;;-1.40;77.90;;;;;;5051534;28;20040;-71
2023/12/08 03:53:47;;;;;;;15.18;3.42;;;-1.50;78.10;;;;;;5052499;28;19958;-74
2023/12/08 03:56:13;;;;;;;4.53;2.50;;;-1.40;78.20;;;;;;5051237;28;20033;-71
2023/12/08 03:58:39;;;;;;;3.08;1.98;;;-1.40;78.50;;;;;;5052735;28;20102;-75
2023/12/08 04:01:06;;;;;;;2.40;1.27;;;-1.40;78.40;;;;;;5050922;28;20033;-74
2023/12/08 04:03:32;;;;;;;5.05;3.38;;;-1.40;78.20;;;;;;5034261;28;20044;-72
2023/12/08 04:05:58;;;;;;;8.38;4.30;;;-1.30;78.10;;;;;;5051259;28;20040;-71
2023/12/08 04:08:24;;;;;;;5.72;3.35;;;-1.40;78.90;;;;;;5052565;28;20072;-75
2023/12/08 04:10:50;;;;;;;12.23;6.82;;;-1.40;78.10;;;;;;5050483;28;20544;-74
2023/12/08 04:13:16;;;;;;;4.05;1.98;;;-1.50;77.80;;;;;;5050845;28;20040;-75
2023/12/08 04:15:42;;;;;;;4.40;3.15;;;-1.50;78.00;;;;;;5052109;28;20033;-74
2023/12/08 04:18:08;;;;;;;7.63;2.40;;;-1.50;77.90;;;;;;5052327;28;20433;-75
2023/12/08 04:20:34;;;;;;;7.80;2.65;;;-1.40;77.50;;;;;;5050269;28;20032;-75
2023/12/08 04:23:04;;;;;;;2.90;2.03;;;-1.40;77.30;;;;;;5050795;28;20057;-71
2023/12/08 04:25:30;;;;;;;8.65;4.18;;;-1.40;77.00;;;;;;5052066;28;20052;-75
2023/12/08 04:27:56;;;;;;;6.38;2.03;;;-1.40;77.30;;;;;;5051204;28;20029;-72
2023/12/08 04:30:22;;;;;;;6.25;4.50;;;-1.40;77.10;;;;;;5051673;28;22552;-71
2023/12/08 04:32:48;;;;;;;8.27;4.45;;;-1.40;77.00;;;;;;5051810;28;20029;-71
2023/12/08 04:35:15;;;;;;;5.15;4.65;;;-1.30;76.90;;;;;;5051101;28;20120;-72
2023/12/08 04:37:41;;;;;;;3.10;1.55;;;-1.30;76.70;;;;;;5050997;28;20036;-71
2023/12/08 04:40:07;;;;;;;3.63;2.22;;;-1.20;76.50;;;;;;5050467;28;20044;-71
2023/12/08 04:42:36;;;;;;;5.18;2.35;;;-1.20;76.30;;;;;;5050999;28;20040;-74
2023/12/08 04:45:03;;;;;;;7.32;3.20;;;-1.20;76.40;;;;;;5050780;28;20033;-72
2023/12/08 04:47:29;;;;;;;5.50;3.65;;;-1.20;76.10;;;;;;5051985;28;20032;-71
2023/12/08 04:49:55;;;;;;;10.00;4.07;;;-1.30;76.30;;;;;;5052534;28;20033;-74
2023/12/08 04:52:21;;;;;;;4.78;3.10;;;-1.30;76.20;;;;;;5050289;28;20048;-71
2023/12/08 04:54:47;;;;;;;6.90;3.85;;;-1.20;76.20;;;;;;5052121;28;20044;-75
2023/12/08 04:57:13;;;;;;;7.70;4.68;;;-1.20;76.20;;;;;;5051756;28;20063;-71
2023/12/08 04:59:40;;;;;;;6.97;2.83;;;-1.10;76.40;;;;;;5050779;28;20075;-74
2023/12/08 05:02:06;;;;;;;5.38;2.72;;;-1.20;76.40;;;;;;5050278;28;20041;-75
2023/12/08 05:04:32;;;;;;;2.63;2.22;;;-1.20;76.50;;;;;;5050393;28;20053;-71
2023/12/08 05:06:58;;;;;;;;;;;-1.20;76.60;;;;;;5051228;28;20036;-74
2023/12/08 05:09:24;;;;;;;3.10;2.80;;;-1.20;76.50;;;;;;5033905;28;19917;-71
2023/12/08 05:11:50;;;;;;;3.03;1.50;;;-1.20;76.50;;;;;;5049877;28;20406;-71
2023/12/08 05:14:16;;;;;;;4.80;2.40;;;-1.30;76.90;;;;;;5050443;28;20037;-75
2023/12/08 05:16:42;;;;;;;8.73;6.32;;;-1.30;76.80;;;;;;5050675;28;20040;-74
2023/12/08 05:19:09;;;;;;;7.22;5.47;;;-1.30;76.90;;;;;;5050580;28;20033;-71
2023/12/08 05:21:35;;;;;;;8.40;3.03;;;-1.30;76.70;;;;;;5049568;28;20532;-71
2023/12/08 05:24:01;;;;;;;4.07;2.78;;;-1.30;76.70;;;;;;5033675;28;20041;-75
2023/12/08 05:26:27;;;;;;;4.05;2.80;;;-1.30;76.60;;;;;;5052887;28;20036;-71
2023/12/08 05:28:53;;;;;;;4.13;3.30;;;-1.40;76.60;;;;;;5055176;28;20429;-74
2023/12/08 05:31:19;;;;;;;5.65;3.30;;;-1.40;76.80;;;;;;5054876;28;20555;-74
2023/12/08 05:33:46;;;;;;;6.53;3.72;;;-1.40;77.00;;;;;;5055162;28;20108;-70
2023/12/08 05:36:12;;;;;;;5.60;2.63;;;-1.50;77.40;;;;;;5053932;28;20037;-74
2023/12/08 05:38:38;;;;;;;16.27;4.00;;;-1.40;77.30;;;;;;5054887;28;20402;-74
2023/12/08 05:41:04;;;;;;;5.72;4.53;;;-1.50;77.20;;;;;;5054652;28;20037;-75
2023/12/08 05:43:30;;;;;;;8.75;5.18;;;-1.50;77.00;;;;;;5054952;28;20037;-74
2023/12/08 05:45:56;;;;;;;8.05;4.90;;;-1.50;77.70;;;;;;5037063;28;20106;-74
2023/12/08 05:48:22;;;;;;;3.83;2.53;;;-1.50;77.70;;;;;;5055124;28;20033;-72
2023/12/08 05:50:48;;;;;;;8.82;5.00;;;-1.50;78.10;;;;;;5054381;28;20119;-75
2023/12/08 05:53:14;;;;;;;4.15;2.50;;;-1.50;77.90;;;;;;5053520;28;20083;-75
2023/12/08 05:55:40;;;;;;;6.38;3.95;;;-1.40;77.80;;;;;;5053356;28;20033;-72
2023/12/08 05:58:06;;;;;;;;;;;-1.40;77.70;;;;;;5068432;28;20040;-75
2023/12/08 06:00:33;;;;;;;7.70;4.68;;;-1.40;77.50;;;;;;5073476;28;19923;-75
2023/12/08 06:03:00;;;;;;;7.32;3.38;;;-1.40;77.30;;;;;;5071611;28;20024;-71
2023/12/08 06:05:26;;;;;;;10.48;6.85;;;-1.40;76.90;;;;;;5069043;28;20036;-71
2023/12/08 06:07:52;;;;;;;8.90;6.93;;;-1.40;77.00;;;;;;5073972;28;20398;-71
2023/12/08 06:10:19;;;;;;;17.40;9.25;;;-1.40;77.30;;;;;;5060415;28;20367;-71
2023/12/08 06:12:45;;;;;;;11.60;5.88;;;-1.40;77.40;;;;;;5054352;28;20051;-71
2023/12/08 06:15:11;;;;;;;5.43;3.28;;;-1.40;77.30;;;;;;5054209;28;20055;-71
2023/12/08 06:17:37;;;;;;;4.93;3.38;;;-1.40;77.00;;;;;;5054489;28;20025;-72
2023/12/08 06:20:05;;;;;;;5.95;3.83;;;-1.50;77.00;;;;;;5087253;28;20041;-74
2023/12/08 06:22:31;;;;;;;8.43;4.72;;;-1.50;76.50;;;;;;5040117;28;20091;-75
2023/12/08 06:24:57;;;;;;;5.50;3.35;;;-1.60;77.20;;;;;;5034307;28;20034;-72
2023/12/08 06:27:23;;;;;;;6.20;3.28;;;-1.60;77.20;;;;;;5034315;28;20402;-71
2023/12/08 06:32:35;;;;;;;10.73;4.13;;;-1.60;77.10;;;;;;5053722;28;20075;-74
2023/12/08 06:35:01;;;;;;;6.90;5.05;;;-1.60;76.90;;;;;;5052945;28;20479;-74
2023/12/08 06:37:27;;;;;;;8.48;3.92;;;-1.70;76.70;;;;;;5054195;28;20025;-74
2023/12/08 06:39:53;;;;;;;4.95;2.78;;;-1.70;76.50;;;;;;5053804;28;20040;-71
2023/12/08 06:42:19;;;;;;;6.32;2.58;;;-1.70;76.50;;;;;;5053285;28;20033;-70
2023/12/08 06:44:45;;;;;;;3.67;2.33;;;-1.70;76.30;;;;;;5035809;28;20040;-71
2023/12/08 06:47:11;;;;;;;5.75;3.25;;;-1.70;76.40;;;;;;5052722;28;20030;-74
2023/12/08 06:49:38;;;;;;;5.30;2.38;;;-1.70;76.30;;;;;;5053813;28;20486;-71
2023/12/08 06:52:04;;;;;;;13.30;3.65;;;-1.60;76.00;;;;;;5035154;28;20056;-71
2023/12/08 06:54:31;;;;;;;9.18;5.03;;;-1.60;75.20;;;;;;5054137;28;20402;-71
2023/12/08 06:56:57;;;;;;;5.90;3.58;;;-1.60;75.60;;;;;;5052310;28;20120;-71
2023/12/08 06:59:23;;;;;;;6.45;3.10;;;-1.60;75.60;;;;;;5067583;28;20047;-71
2023/12/08 07:01:49;;;;;;;4.57;2.85;;;-1.50;75.30;;;;;;5071716;28;20383;-72
2023/12/08 07:04:15;;;;;;;3.42;2.47;;;-1.60;75.40;;;;;;5073085;28;20061;-75
2023/12/08 07:06:41;;;;;;;6.93;3.30;;;-1.50;74.90;;;;;;5072174;28;20035;-74
2023/12/08 07:09:09;;;;;;;4.80;2.85;;;-1.50;75.10;;;;;;5073569;28;20068;-71
2023/12/08 07:11:35;;;;;;;11.85;5.45;;;-1.40;74.80;;;;;;5070895;28;20040;-74
2023/12/08 07:14:01;;;;;;;;;;;-1.30;74.60;;;;;;5071414;28;20040;-74
2023/12/08 07:16:27;;;;;;;8.65;6.00;;;-1.20;75.00;;;;;;5054622;28;19918;-71
2023/12/08 07:18:54;;;;;;;10.90;5.05;;;-1.10;74.40;;;;;;5071569;28;20044;-74
2023/12/08 07:21:20;;;;;;;7.63;5.28;;;-1.10;73.90;;;;;;5071252;28;20090;-74
2023/12/08 07:23:46;;;;;;;7.20;5.07;;;-1.00;73.80;;;;;;5072391;28;20086;-74
2023/12/08 07:26:12;;;;;;;11.40;7.47;;;-0.80;73.60;;;;;;5071758;28;20036;-71
2023/12/08 07:28:38;;;;;;;9.35;6.93;;;-0.80;72.50;;;;;;5065747;28;20037;-71
2023/12/08 07:31:04;;;;;;;7.47;4.95;;;-0.80;72.60;;;;;;5071831;28;20036;-71
2023/12/08 07:33:30;;;;;;;;;;;-0.70;72.70;;;;;;5071960;28;20036;-74
2023/12/08 07:35:56;;;;;;;6.65;5.53;;;-0.60;72.50;;;;;;5070756;28;19955;-74
2023/12/08 07:38:22;;;;;;;6.32;3.63;;;-0.60;71.80;;;;;;5072823;28;20040;-74
2023/12/08 07:40:48;;;;;;;4.63;3.78;;;-0.50;71.90;;;;;;5070183;28;20040;-71
2023/12/08 07:43:14;;;;;;;8.55;5.85;;;-0.30;71.60;;;;;;5054375;28;20033;-71
2023/12/08 07:45:40;;;;;;;10.13;4.35;;;-0.30;71.30;;;;;;5067230;28;20044;-71
2023/12/08 07:48:09;;;;;;;4.72;2.88;;;-0.20;71.10;;;;;;5071273;28;20048;-74
2023/12/08 07:50:35;;;;;;;9.85;5.60;;;-0.10;70.70;;;;;;5052818;28;20071;-71
2023/12/08 07:53:02;;;;;;;7.10;4.93;;;0.10;70.60;;;;;;5071269;28;20082;-71
2023/12/08 07:55:28;;;;;;;5.95;3.53;;;0.10;70.60;;;;;;5070937;28;20119;-71
2023/12/08 07:57:54;;;;;;;5.50;3.05;;;0.10;70.30;;;;;;5072306;28;20086;-74
2023/12/08 08:00:21;;;;;;;9.77;4.53;;;0.20;70.20;;;;;;5071245;28;20032;-74
2023/12/08 08:02:47;;;;;;;;;;;0.30;70.30;;;;;;5066092;28;20040;-74
2023/12/08 08:05:13;;;;;;;10.13;6.30;;;0.30;70.30;;;;;;5064755;28;20010;-75
2023/12/08 08:07:39;;;;;;;10.93;5.18;;;0.30;70.20;;;;;;5054217;28;20088;-71
2023/12/08 08:10:06;;;;;;;8.80;5.45;;;0.40;70.10;;;;;;5071465;28;20465;-71
2023/12/08 08:12:33;;;;;;;7.53;5.15;;;0.30;69.20;;;;;;5071149;28;20029;-71
2023/12/08 08:14:59;;;;;;;7.60;4.78;;;0.30;69.90;;;;;;5081566;28;20036;-74
2023/12/08 08:17:25;;;;;;;5.80;4.53;;;0.30;69.80;;;;;;5090957;28;20036;-74
2023/12/08 08:19:51;;;;;;;;;;;0.40;69.90;;;;;;5075260;28;20045;-74
2023/12/08 08:22:17;;;;;;;8.13;3.38;;;0.40;69.60;;;;;;5050138;28;20019;-74
2023/12/08 08:24:43;;;;;;;12.35;7.68;;;0.40;69.70;;;;;;5059046;28;20036;-74
2023/12/08 08:27:09;;;;;;;7.13;4.13;;;0.30;69.60;;;;;;5071176;28;20036;-71
2023/12/08 08:29:36;;;;;;;8.07;3.13;;;0.40;69.60;;;;;;5070856;28;20314;-71
2023/12/08 08:32:02;;;;;;;7.88;5.50;;;0.40;69.30;;;;;;5070107;28;20057;-74
2023/12/08 08:34:29;;;;;;;11.70;5.55;;;0.40;69.30;;;;;;5071841;28;20028;-75
2023/12/08 08:36:55;;;;;;;13.45;6.28;;;0.50;69.70;;;;;;5063992;28;20036;-75
2023/12/08 08:39:21;;;;;;;7.70;5.22;;;0.60;69.60;;;;;;5056971;28;20090;-73
2023/12/08 08:41:48;;;;;;;6.13;4.15;;;0.70;69.30;;;;;;5070314;28;20037;-72
2023/12/08 08:44:14;;;;;;;12.57;6.82;;;0.80;68.90;;;;;;5071700;28;20033;-75
2023/12/08 08:46:41;;;;;;;;;;;0.90;68.50;;;;;;5072169;28;20555;-71
2023/12/08 08:49:07;;;;;;;4.63;3.22;;;0.90;68.40;;;;;;5070635;28;19917;-71
2023/12/08 08:51:33;;;;;;;4.60;2.88;;;1.00;67.70;;;;;;5069788;28;20037;-75
2023/12/08 08:54:00;;;;;;;13.13;5.45;;;1.00;68.40;;;;;;5065461;28;20037;-74
2023/12/08 08:56:26;;;;;;;8.38;5.40;;;1.10;68.20;;;;;;5071762;28;20097;-74
2023/12/08 08:58:53;;;;;;;6.47;4.05;;;1.20;68.30;;;;;;5071255;28;20036;-71
2023/12/08 09:01:19;;;;;;;11.85;5.53;;;1.20;67.70;;;;;;5072172;28;20033;-73
2023/12/08 09:03:45;;;;;;;5.50;4.10;;;1.30;67.80;;;;;;5075400;28;20099;-75
2023/12/08 09:06:11;;;;;;;9.13;4.70;;;1.40;67.70;;;;;;5074566;28;20033;-74
2023/12/08 09:08:37;;;;;;;6.40;4.43;;;1.40;67.30;;;;;;5075665;28;20048;-74
2023/12/08 09:11:03;;;;;;;12.30;4.95;;;1.50;67.20;;;;;;5064136;28;20041;-72
2023/12/08 09:13:31;;;;;;;10.63;4.50;;;1.50;66.10;;;;;;5054226;28;20083;-74
2023/12/08 09:15:58;;;;;;;11.10;5.65;;;1.50;66.90;;;;;;5072734;28;20539;-71
2023/12/08 09:18:24;;;;;;;5.60;3.40;;;1.50;66.30;;;;;;5074122;28;20300;-71
2023/12/08 09:20:50;;;;;;;9.30;5.97;;;1.60;66.70;;;;;;5073224;28;20068;-71
2023/12/08 09:23:16;;;;;;;10.13;4.32;;;1.70;67.00;;;;;;5073957;28;20036;-72
2023/12/08 09:25:43;;;;;;;10.05;4.53;;;1.80;66.70;;;;;;5073795;28;20033;-74
2023/12/08 09:28:09;;;;;;;8.27;4.78;;;1.80;66.20;;;;;;5065220;28;20044;-75
2023/12/08 09:30:35;;;;;;;15.85;6.88;;;1.90;66.20;;;;;;5069013;28;20089;-75
2023/12/08 09:33:01;;;;;;;7.80;5.10;;;1.90;66.40;;;;;;5075093;28;20086;-71
2023/12/08 09:35:27;;;;;;;9.80;5.40;;;2.00;66.30;;;;;;5053491;28;20037;-75
2023/12/08 09:37:53;;;;;;;11.65;7.72;;;2.10;66.50;;;;;;5053875;28;20151;-71
2023/12/08 09:40:24;;;;;;;16.58;6.57;;;2.20;66.30;;;;;;5067393;28;20041;-71
2023/12/08 09:43:16;;;;;;;11.57;6.82;;;2.30;66.00;;;;;;5074654;28;20111;-75
2023/12/08 09:45:44;;;;;;;12.63;7.20;;;2.30;65.70;;;;;;5058516;28;20071;-75
2023/12/08 09:48:12;;;;;;;10.02;6.13;;;2.50;65.70;;;;;;5053813;28;20388;-71
2023/12/08 09:50:40;;;;;;;16.30;8.68;;;2.50;65.40;;;;;;5069014;28;20058;-75
2023/12/08 09:53:08;;;;;;;15.70;8.18;;;2.60;65.00;;;;;;5073195;28;20433;-71
2023/12/08 09:55:37;;;;;;;12.75;4.80;;;2.60;64.30;;;;;;5074388;28;20036;-75
2023/12/08 09:58:04;;;;;;;8.68;5.78;;;2.60;64.80;;;;;;5073399;28;20037;-75
2023/12/08 10:00:32;;;;;;;9.02;6.10;;;2.70;64.80;;;;;;5072785;28;20037;-75
2023/12/08 10:03:00;;;;;;;9.00;5.35;;;2.70;65.30;;;;;;5056240;28;20087;-75
2023/12/08 10:05:27;;;;;;;8.73;5.15;;;2.60;64.20;;;;;;5067621;28;20040;-71
2023/12/08 10:07:56;;;;;;;8.40;5.72;;;2.60;65.60;;;;;;5056511;28;20032;-75
2023/12/08 10:10:24;;;;;;;11.23;7.20;;;2.70;65.30;;;;;;5046538;28;20251;-71
2023/12/08 10:12:50;;;;;;;8.98;5.05;;;2.90;64.60;;;;;;5053320;28;20029;-75
2023/12/08 10:15:17;;;;;;;9.77;5.10;;;3.00;65.00;;;;;;5066879;28;20214;-71
2023/12/08 10:18:02;;;;;;;12.43;7.18;;;3.10;64.60;;;;;;5074423;28;20513;-74
2023/12/08 10:20:28;;;;;;;6.97;4.53;;;3.20;64.50;;;;;;5066774;28;20055;-71
2023/12/08 10:22:56;;;;;;;8.88;6.40;;;3.20;64.20;;;;;;5072797;28;20025;-75
2023/12/08 10:25:26;;;;;;;15.02;7.22;;;3.30;64.10;;;;;;5072538;28;20040;-71
2023/12/08 10:28:11;;;;;;;9.57;6.55;;;3.30;63.90;;;;;;5072979;28;20415;-74
2023/12/08 10:30:38;;;;;;;11.82;5.60;;;3.30;63.70;;;;;;5072081;28;20043;-75
2023/12/08 10:33:04;;;;;;;10.98;6.28;;;3.40;63.80;;;;;;5073883;28;20366;-71
2023/12/08 10:35:30;;;;;;;8.90;5.10;;;3.40;63.90;;;;;;5067678;28;20085;-74
2023/12/08 10:37:57;;;;;;;16.30;6.32;;;3.40;63.90;;;;;;5052825;28;20036;-70
2023/12/08 10:40:23;;;;;;;;;;;3.40;63.90;;;;;;5067592;28;20489;-71
2023/12/08 10:42:49;;;;;;;10.55;6.93;;;3.40;64.10;;;;;;5072502;28;19913;-75
2023/12/08 10:45:15;;;;;;;12.20;5.93;;;3.50;64.00;;;;;;5071956;28;20039;-71
2023/12/08 10:47:49;;;;;;;;;;;3.50;64.10;;;;;;5074617;28;20140;-74
2023/12/08 10:50:15;;;;;;;14.43;6.47;;;3.50;63.90;;;;;;5071852;28;19966;-75
2023/12/08 10:52:42;;;;;;;6.22;4.85;;;3.40;63.00;;;;;;5065867;28;20025;-74
2023/12/08 10:55:10;;;;;;;10.23;4.88;;;3.40;63.80;;;;;;5063875;28;20036;-74
2023/12/08 10:57:37;;;;;;;14.90;5.72;;;3.40;64.00;;;;;;5072155;28;20039;-74
2023/12/08 11:00:19;;;;;;;6.57;4.28;;;3.40;64.20;;;;;;5071566;28;20037;-71
2023/12/08 11:02:57;;;;;;;9.13;6.60;;;3.40;64.40;;;;;;5072418;28;20025;-74
2023/12/08 11:05:45;;;;;;;9.20;4.78;;;3.40;64.50;;;;;;5071509;28;20036;-74
2023/12/08 11:08:17;;;;;;;13.15;6.72;;;3.40;64.60;;;;;;5071933;28;20033;-70
2023/12/08 11:11:05;;;;;;;11.02;4.82;;;3.40;64.40;;;;;;5056563;28;20490;-70
2023/12/08 11:13:34;;;;;;;;;;;3.50;64.40;;;;;;5053930;28;20140;-71
2023/12/08 11:16:39;;;;;;;10.05;5.88;;;3.50;64.60;;;;;;5070960;28;19919;-75
2023/12/08 11:19:06;;;;;;;7.20;5.55;;;3.50;64.40;;;;;;5071583;28;20043;-75
2023/12/08 11:21:32;;;;;;;12.85;8.43;;;3.50;64.70;;;;;;5071318;28;20389;-74
2023/12/08 11:23:59;;;;;;;13.68;8.95;;;3.50;65.00;;;;;;5071211;28;20071;-71
2023/12/08 11:27:02;;;;;;;13.63;8.70;;;3.60;64.70;;;;;;5054257;28;20032;-70
2023/12/08 11:30:05;;;;;;;15.05;8.15;;;3.80;64.90;;;;;;5073045;28;20037;-74
2023/12/08 11:33:11;;;;;;;9.50;6.35;;;3.90;64.50;;;;;;5071327;28;20051;-74
2023/12/08 11:35:38;;;;;;;13.98;7.40;;;4.00;64.40;;;;;;5071191;28;20467;-70
2023/12/08 11:38:05;;;;;;;10.00;5.10;;;3.90;63.90;;;;;;5072808;28;20040;-71
2023/12/08 11:40:32;;;;;;;11.40;6.60;;;4.00;64.80;;;;;;5070469;28;20036;-70
2023/12/08 11:42:58;;;;;;;9.38;6.93;;;3.90;64.40;;;;;;5071153;28;20074;-71
2023/12/08 11:45:24;;;;;;;5.20;3.08;;;3.90;65.20;;;;;;5066540;28;20514;-74
2023/12/08 11:47:50;;;;;;;8.15;3.78;;;4.00;65.00;;;;;;5071424;28;20072;-70
2023/12/08 11:50:17;;;;;;;9.68;6.97;;;4.00;65.00;;;;;;5071938;28;20501;-75
2023/12/08 11:52:43;;;;;;;8.90;6.22;;;4.00;64.60;;;;;;5071311;28;20036;-74
2023/12/08 11:55:27;;;;;;;6.28;3.95;;;4.00;64.40;;;;;;5070763;28;20099;-74
2023/12/08 11:58:06;;;;;;;11.10;5.90;;;4.00;64.50;;;;;;5072454;28;20028;-75
2023/12/08 12:00:35;;;;;;;8.10;5.15;;;4.10;64.80;;;;;;5065495;28;20036;-75
2023/12/08 12:03:06;;;;;;;9.48;5.32;;;4.10;64.80;;;;;;5051109;28;20024;-74
2023/12/08 12:05:32;;;;;;;6.70;3.65;;;4.10;64.80;;;;;;5066357;28;20127;-71
2023/12/08 12:07:59;;;;;;;;;;;4.20;64.50;;;;;;5072890;28;20033;-70
2023/12/08 12:10:44;;;;;;;5.75;2.95;;;4.20;64.60;;;;;;5070363;28;20446;-74
2023/12/08 12:13:15;;;;;;;11.07;6.95;;;4.30;64.50;;;;;;5070904;28;20435;-74
2023/12/08 12:15:41;;;;;;;11.60;7.35;;;4.20;64.60;;;;;;5070718;28;20048;-70
2023/12/08 12:18:10;;;;;;;10.80;5.35;;;4.20;65.00;;;;;;5060879;28;20482;-70
2023/12/08 12:20:40;;;;;;;7.75;5.68;;;4.20;65.10;;;;;;5065943;28;20043;-74
2023/12/08 12:23:07;;;;;;;12.07;7.15;;;4.10;65.30;;;;;;5054872;28;20117;-74
2023/12/08 12:25:33;;;;;;;24.08;9.77;;;4.10;65.30;;;;;;5071994;28;20397;-71
2023/12/08 12:27:59;;;;;;;;;;;4.10;64.80;;;;;;5072624;28;20454;-74
2023/12/08 12:30:25;;;;;;;8.23;5.65;;;4.00;65.50;;;;;;5050137;28;19924;-70
2023/12/08 12:32:51;;;;;;;13.23;7.57;;;4.10;65.40;;;;;;5034016;28;20025;-74
2023/12/08 12:35:18;;;;;;;7.95;4.53;;;4.10;65.10;;;;;;5059280;28;20421;-74
2023/12/08 12:37:44;;;;;;;9.93;5.85;;;4.10;64.80;;;;;;5055740;28;20111;-71
2023/12/08 12:40:11;;;;;;;8.55;7.30;;;4.10;65.00;;;;;;5049308;28;20494;-71
2023/12/08 12:42:56;;;;;;;12.25;5.65;;;4.20;64.70;;;;;;5074897;28;20029;-74
2023/12/08 12:45:42;;;;;;;8.25;4.10;;;4.20;64.70;;;;;;5074429;28;20041;-73
2023/12/08 12:48:09;;;;;;;15.95;4.53;;;4.20;64.70;;;;;;5074788;28;20032;-70
2023/12/08 12:50:53;;;;;;;13.48;4.60;;;4.20;64.50;;;;;;5075261;28;20043;-74
2023/12/08 12:53:19;;;;;;;12.32;5.10;;;4.20;64.50;;;;;;5074017;28;20071;-74
2023/12/08 12:55:46;;;;;;;9.15;2.67;;;4.30;63.90;;;;;;5074258;28;20032;-74
2023/12/08 12:58:30;;;;;;;10.65;3.83;;;4.30;63.80;;;;;;5074236;28;20041;-74
2023/12/08 13:00:57;;;;;;;9.27;5.65;;;4.30;64.20;;;;;;5075131;28;20124;-74